West End, Virginia
Current Conditions -  °F | °C
As of 7:34 PM on Wednesday 26 Nov 2014 (Local Time) from KOFP Reporting Station
Overcast Overcast  
Wind Chill: 32°   Ceiling: 7500
Heat Index: 37°   Visibility: 10mi
Dew Point: 35°   Wind: 7mph
Humidity: 93%   Direction: 310°NW
Pressure: 30"   Gusts: NA
Location:  37.5861°N, 77.4907°W
Report Text: KOFP 270034Z AUTO 31006KT 10SM FEW009 FEW018 OVC075 03/02 A3000 RMK AO2 T00280017
Loading
Personal Weather Stations






























Interactive Weather Map New forecast layout! Learn more

10-Day Weather Forecast

Advertisements
Track Severe Weather on mobile